sensor_id;sensor_type;location;lat;lon;timestamp;pressure;altitude;pressure_sealevel;temperature;humidity
7182;BME280;3632;42.724;23.298;2023-04-15T00:02:14;94637.50;;;10.33;74.32
7182;BME280;3632;42.724;23.298;2023-04-15T00:04:42;94643.22;;;10.06;74.25
7182;BME280;3632;42.724;23.298;2023-04-15T00:07:09;94692.09;;;9.91;75.29
7182;BME280;3632;42.724;23.298;2023-04-15T00:09:36;94337.41;;;7.77;77.54
7182;BME280;3632;42.724;23.298;2023-04-15T00:12:03;94601.28;;;9.32;75.62
7182;BME280;3632;42.724;23.298;2023-04-15T00:14:30;94643.84;;;9.80;73.23
7182;BME280;3632;42.724;23.298;2023-04-15T00:16:56;94637.59;;;10.03;71.97
7182;BME280;3632;42.724;23.298;2023-04-15T00:19:24;94634.38;;;10.01;72.31
7182;BME280;3632;42.724;23.298;2023-04-15T00:21:51;94671.19;;;9.47;75.23
7182;BME280;3632;42.724;23.298;2023-04-15T00:24:18;94644.88;;;10.36;74.22
7182;BME280;3632;42.724;23.298;2023-04-15T00:26:45;94495.75;;;9.17;74.63
7182;BME280;3632;42.724;23.298;2023-04-15T00:29:12;94569.34;;;9.58;75.16
7182;BME280;3632;42.724;23.298;2023-04-15T00:31:39;94488.84;;;8.79;75.32
7182;BME280;3632;42.724;23.298;2023-04-15T00:34:06;94646.75;;;10.15;76.04
7182;BME280;3632;42.724;23.298;2023-04-15T00:36:35;94652.25;;;10.30;74.48
7182;BME280;3632;42.724;23.298;2023-04-15T00:39:02;94660.63;;;10.11;73.07
7182;BME280;3632;42.724;23.298;2023-04-15T00:41:29;94659.59;;;10.23;73.00
7182;BME280;3632;42.724;23.298;2023-04-15T00:43:56;94647.34;;;9.98;71.80
7182;BME280;3632;42.724;23.298;2023-04-15T00:46:24;94652.66;;;10.35;73.70
7182;BME280;3632;42.724;23.298;2023-04-15T00:48:53;94642.81;;;10.11;74.82
7182;BME280;3632;42.724;23.298;2023-04-15T00:51:20;94636.09;;;10.10;78.01
7182;BME280;3632;42.724;23.298;2023-04-15T00:53:48;94587.34;;;10.05;78.94
7182;BME280;3632;42.724;23.298;2023-04-15T00:56:16;94628.81;;;10.26;80.63
7182;BME280;3632;42.724;23.298;2023-04-15T00:58:43;94557.44;;;9.78;81.33
7182;BME280;3632;42.724;23.298;2023-04-15T01:01:10;94652.38;;;10.28;80.94
7182;BME280;3632;42.724;23.298;2023-04-15T01:03:36;94663.25;;;10.30;81.70
7182;BME280;3632;42.724;23.298;2023-04-15T01:06:03;94653.78;;;10.02;82.50
7182;BME280;3632;42.724;23.298;2023-04-15T01:08:30;94645.25;;;9.53;83.98
7182;BME280;3632;42.724;23.298;2023-04-15T01:11:00;94660.94;;;9.58;87.17
7182;BME280;3632;42.724;23.298;2023-04-15T01:13:28;94654.06;;;9.49;89.85
7182;BME280;3632;42.724;23.298;2023-04-15T01:15:55;94650.97;;;9.46;89.66
7182;BME280;3632;42.724;23.298;2023-04-15T01:18:23;94654.72;;;9.42;87.96
7182;BME280;3632;42.724;23.298;2023-04-15T01:20:49;93984.34;;;5.22;85.20
7182;BME280;3632;42.724;23.298;2023-04-15T01:23:16;94652.06;;;9.23;88.44
7182;BME280;3632;42.724;23.298;2023-04-15T01:25:45;94004.09;;;5.17;88.99
7182;BME280;3632;42.724;23.298;2023-04-15T01:28:12;94565.97;;;8.48;90.93
7182;BME280;3632;42.724;23.298;2023-04-15T01:30:39;94644.50;;;9.32;90.34
7182;BME280;3632;42.724;23.298;2023-04-15T01:33:05;93939.25;;;5.06;89.10
7182;BME280;3632;42.724;23.298;2023-04-15T01:35:32;94551.72;;;8.87;86.71
7182;BME280;3632;42.724;23.298;2023-04-15T01:38:04;94670.00;;;9.51;86.73
7182;BME280;3632;42.724;23.298;2023-04-15T01:40:31;94624.69;;;9.36;85.88
7182;BME280;3632;42.724;23.298;2023-04-15T01:43:00;94562.59;;;8.26;83.56
7182;BME280;3632;42.724;23.298;2023-04-15T01:45:26;94419.72;;;7.32;83.43
7182;BME280;3632;42.724;23.298;2023-04-15T01:47:53;94650.22;;;9.64;83.86
7182;BME280;3632;42.724;23.298;2023-04-15T01:50:20;94660.34;;;9.55;84.08
7182;BME280;3632;42.724;23.298;2023-04-15T01:52:47;94593.91;;;8.99;84.48
7182;BME280;3632;42.724;23.298;2023-04-15T01:55:13;94659.28;;;9.48;85.04
7182;BME280;3632;42.724;23.298;2023-04-15T01:57:40;94657.81;;;9.45;83.95
7182;BME280;3632;42.724;23.298;2023-04-15T02:00:09;94655.56;;;9.01;86.35
7182;BME280;3632;42.724;23.298;2023-04-15T02:02:37;94661.47;;;8.81;88.58
7182;BME280;3632;42.724;23.298;2023-04-15T02:05:04;94672.94;;;8.96;87.58
7182;BME280;3632;42.724;23.298;2023-04-15T02:07:31;94765.72;;;8.69;88.47
7182;BME280;3632;42.724;23.298;2023-04-15T02:09:57;94705.59;;;9.00;88.97
7182;BME280;3632;42.724;23.298;2023-04-15T02:12:24;94676.53;;;9.14;85.44
7182;BME280;3632;42.724;23.298;2023-04-15T02:14:51;94388.31;;;7.44;85.33
7182;BME280;3632;42.724;23.298;2023-04-15T02:17:19;94137.38;;;5.78;83.37
7182;BME280;3632;42.724;23.298;2023-04-15T02:19:46;94672.38;;;8.92;85.00
7182;BME280;3632;42.724;23.298;2023-04-15T02:22:13;94667.66;;;8.88;86.12
7182;BME280;3632;42.724;23.298;2023-04-15T02:24:43;94670.53;;;8.94;86.54
7182;BME280;3632;42.724;23.298;2023-04-15T02:27:10;94663.28;;;8.69;86.44
7182;BME280;3632;42.724;23.298;2023-04-15T02:29:37;94424.78;;;7.32;84.98
7182;BME280;3632;42.724;23.298;2023-04-15T02:32:04;94667.84;;;8.54;85.60
7182;BME280;3632;42.724;23.298;2023-04-15T02:34:32;94700.25;;;8.62;86.06
7182;BME280;3632;42.724;23.298;2023-04-15T02:37:00;94670.03;;;8.80;85.51
7182;BME280;3632;42.724;23.298;2023-04-15T02:39:28;94423.94;;;6.57;84.93
7182;BME280;3632;42.724;23.298;2023-04-15T02:41:54;94681.97;;;8.47;85.05
7182;BME280;3632;42.724;23.298;2023-04-15T02:44:23;94679.69;;;8.33;86.58
7182;BME280;3632;42.724;23.298;2023-04-15T02:46:50;94605.06;;;7.93;86.52
7182;BME280;3632;42.724;23.298;2023-04-15T02:49:19;94678.97;;;8.74;84.66
7182;BME280;3632;42.724;23.298;2023-04-15T02:51:47;94593.97;;;8.25;83.42
7182;BME280;3632;42.724;23.298;2023-04-15T02:54:14;94674.44;;;8.78;83.22
7182;BME280;3632;42.724;23.298;2023-04-15T02:56:41;94683.50;;;8.39;83.46
7182;BME280;3632;42.724;23.298;2023-04-15T02:59:07;94678.63;;;8.47;84.38
7182;BME280;3632;42.724;23.298;2023-04-15T03:01:34;94598.03;;;7.96;84.55
7182;BME280;3632;42.724;23.298;2023-04-15T03:04:01;94682.81;;;8.57;84.00
7182;BME280;3632;42.724;23.298;2023-04-15T03:06:28;94691.56;;;8.44;83.60
7182;BME280;3632;42.724;23.298;2023-04-15T03:08:56;94681.84;;;8.06;85.10
7182;BME280;3632;42.724;23.298;2023-04-15T03:11:24;94422.91;;;6.48;85.05
7182;BME280;3632;42.724;23.298;2023-04-15T03:13:51;94732.41;;;7.75;86.97
7182;BME280;3632;42.724;23.298;2023-04-15T03:16:18;94590.22;;;6.89;88.87
7182;BME280;3632;42.724;23.298;2023-04-15T03:18:45;94695.19;;;7.54;89.24
7182;BME280;3632;42.724;23.298;2023-04-15T03:21:12;94730.69;;;6.27;87.79
7182;BME280;3632;42.724;23.298;2023-04-15T03:23:39;94651.19;;;6.64;86.55
7182;BME280;3632;42.724;23.298;2023-04-15T03:26:07;94690.00;;;6.65;89.40
7182;BME280;3632;42.724;23.298;2023-04-15T03:28:33;94726.56;;;6.96;89.39
7182;BME280;3632;42.724;23.298;2023-04-15T03:31:00;94721.09;;;7.24;88.76
7182;BME280;3632;42.724;23.298;2023-04-15T03:33:27;94734.13;;;7.53;87.58
7182;BME280;3632;42.724;23.298;2023-04-15T03:35:54;94792.44;;;7.64;86.21
7182;BME280;3632;42.724;23.298;2023-04-15T03:38:20;94632.59;;;7.10;84.98
7182;BME280;3632;42.724;23.298;2023-04-15T03:40:47;94735.38;;;7.69;86.61
7182;BME280;3632;42.724;23.298;2023-04-15T03:43:15;94748.78;;;7.71;86.89
7182;BME280;3632;42.724;23.298;2023-04-15T03:45:42;94425.00;;;5.86;87.16
7182;BME280;3632;42.724;23.298;2023-04-15T03:48:09;94751.06;;;7.86;85.25
7182;BME280;3632;42.724;23.298;2023-04-15T03:50:35;94747.50;;;7.88;84.96
7182;BME280;3632;42.724;23.298;2023-04-15T03:53:02;94504.84;;;5.42;84.47
7182;BME280;3632;42.724;23.298;2023-04-15T03:55:29;94750.25;;;7.41;85.93
7182;BME280;3632;42.724;23.298;2023-04-15T03:57:56;94574.84;;;6.35;86.94
7182;BME280;3632;42.724;23.298;2023-04-15T04:00:24;94754.81;;;7.13;87.51
7182;BME280;3632;42.724;23.298;2023-04-15T04:02:51;94843.56;;;7.01;89.02
7182;BME280;3632;42.724;23.298;2023-04-15T04:05:17;94747.91;;;7.15;87.78
7182;BME280;3632;42.724;23.298;2023-04-15T04:07:44;94074.66;;;2.99;87.66
7182;BME280;3632;42.724;23.298;2023-04-15T04:10:11;94742.75;;;7.28;87.73
7182;BME280;3632;42.724;23.298;2023-04-15T04:12:38;94682.38;;;7.00;86.42
7182;BME280;3632;42.724;23.298;2023-04-15T04:15:06;94702.41;;;7.03;87.16
7182;BME280;3632;42.724;23.298;2023-04-15T04:17:35;94751.97;;;7.29;88.19
7182;BME280;3632;42.724;23.298;2023-04-15T04:20:01;94697.56;;;7.22;86.29
7182;BME280;3632;42.724;23.298;2023-04-15T04:22:28;94752.09;;;7.61;85.53
7182;BME280;3632;42.724;23.298;2023-04-15T04:24:55;94607.97;;;6.78;83.97
7182;BME280;3632;42.724;23.298;2023-04-15T04:27:23;94670.88;;;7.29;85.57
7182;BME280;3632;42.724;23.298;2023-04-15T04:29:50;94346.66;;;5.29;84.38
7182;BME280;3632;42.724;23.298;2023-04-15T04:32:17;94787.50;;;7.96;84.33
7182;BME280;3632;42.724;23.298;2023-04-15T04:34:45;94150.63;;;3.90;83.62
7182;BME280;3632;42.724;23.298;2023-04-15T04:37:12;94764.44;;;8.10;83.87
7182;BME280;3632;42.724;23.298;2023-04-15T04:39:39;94695.38;;;7.73;83.35
7182;BME280;3632;42.724;23.298;2023-04-15T04:42:06;94317.50;;;5.25;82.79
7182;BME280;3632;42.724;23.298;2023-04-15T04:44:33;94772.63;;;8.36;83.24
7182;BME280;3632;42.724;23.298;2023-04-15T04:46:59;94393.34;;;5.93;82.65
7182;BME280;3632;42.724;23.298;2023-04-15T04:49:26;94772.22;;;8.51;83.09
7182;BME280;3632;42.724;23.298;2023-04-15T04:51:54;94769.06;;;8.59;81.79
7182;BME280;3632;42.724;23.298;2023-04-15T04:54:21;94768.72;;;8.63;81.64
7182;BME280;3632;42.724;23.298;2023-04-15T04:56:48;94783.16;;;8.63;82.17
7182;BME280;3632;42.724;23.298;2023-04-15T04:59:15;94781.16;;;8.66;82.27
7182;BME280;3632;42.724;23.298;2023-04-15T05:01:41;94277.00;;;4.91;82.26
7182;BME280;3632;42.724;23.298;2023-04-15T05:04:08;94696.47;;;8.13;82.42
7182;BME280;3632;42.724;23.298;2023-04-15T05:06:35;94520.91;;;7.02;81.86
7182;BME280;3632;42.724;23.298;2023-04-15T05:09:03;94097.41;;;4.05;82.90
7182;BME280;3632;42.724;23.298;2023-04-15T05:11:30;94787.19;;;8.65;82.21
7182;BME280;3632;42.724;23.298;2023-04-15T05:13:57;94780.03;;;8.59;81.37
7182;BME280;3632;42.724;23.298;2023-04-15T05:16:26;94805.13;;;8.85;80.23
7182;BME280;3632;42.724;23.298;2023-04-15T05:18:52;94846.09;;;8.26;82.58
7182;BME280;3632;42.724;23.298;2023-04-15T05:21:19;94783.09;;;8.42;82.88
7182;BME280;3632;42.724;23.298;2023-04-15T05:23:46;94810.84;;;8.66;82.84
7182;BME280;3632;42.724;23.298;2023-04-15T05:26:14;94734.66;;;8.23;82.03
7182;BME280;3632;42.724;23.298;2023-04-15T05:28:42;94636.09;;;6.52;81.58
7182;BME280;3632;42.724;23.298;2023-04-15T05:31:08;94812.09;;;8.71;80.79
7182;BME280;3632;42.724;23.298;2023-04-15T05:33:35;94806.78;;;8.75;80.81
7182;BME280;3632;42.724;23.298;2023-04-15T05:36:02;94794.44;;;8.70;80.32
7182;BME280;3632;42.724;23.298;2023-04-15T05:38:29;94790.09;;;8.93;80.42
7182;BME280;3632;42.724;23.298;2023-04-15T05:40:56;94139.41;;;4.97;79.34
7182;BME280;3632;42.724;23.298;2023-04-15T05:43:24;94791.78;;;9.03;80.68
7182;BME280;3632;42.724;23.298;2023-04-15T05:45:51;94728.88;;;8.64;79.56
7182;BME280;3632;42.724;23.298;2023-04-15T05:48:17;94803.69;;;9.03;79.72
7182;BME280;3632;42.724;23.298;2023-04-15T05:50:44;94720.38;;;8.86;78.78
7182;BME280;3632;42.724;23.298;2023-04-15T05:53:11;94806.94;;;9.67;77.24
7182;BME280;3632;42.724;23.298;2023-04-15T05:55:38;94813.84;;;9.86;75.56
7182;BME280;3632;42.724;23.298;2023-04-15T05:58:04;94805.34;;;10.06;74.36
7182;BME280;3632;42.724;23.298;2023-04-15T06:00:32;94807.88;;;10.27;73.31
7182;BME280;3632;42.724;23.298;2023-04-15T06:02:59;94812.75;;;10.39;72.34
7182;BME280;3632;42.724;23.298;2023-04-15T06:05:26;94816.88;;;10.31;72.05
7182;BME280;3632;42.724;23.298;2023-04-15T06:07:53;94156.00;;;6.41;70.91
7182;BME280;3632;42.724;23.298;2023-04-15T06:10:20;94817.09;;;10.68;70.62
7182;BME280;3632;42.724;23.298;2023-04-15T06:12:46;94711.00;;;9.98;69.45
7182;BME280;3632;42.724;23.298;2023-04-15T06:15:13;94711.13;;;10.06;69.38
7182;BME280;3632;42.724;23.298;2023-04-15T06:17:42;94727.00;;;10.19;68.94
7182;BME280;3632;42.724;23.298;2023-04-15T06:20:10;94825.44;;;10.98;68.74
7182;BME280;3632;42.724;23.298;2023-04-15T06:22:37;94444.28;;;8.65;68.23
7182;BME280;3632;42.724;23.298;2023-04-15T06:25:05;94840.59;;;11.29;69.76
7182;BME280;3632;42.724;23.298;2023-04-15T06:27:32;94837.66;;;11.14;72.24
7182;BME280;3632;42.724;23.298;2023-04-15T06:29:59;94838.34;;;11.07;73.08
7182;BME280;3632;42.724;23.298;2023-04-15T06:32:26;94851.34;;;11.13;71.77
7182;BME280;3632;42.724;23.298;2023-04-15T06:34:54;94706.78;;;10.18;71.77
7182;BME280;3632;42.724;23.298;2023-04-15T06:37:21;94825.56;;;10.87;71.97
7182;BME280;3632;42.724;23.298;2023-04-15T06:39:47;94843.72;;;11.32;72.48
7182;BME280;3632;42.724;23.298;2023-04-15T06:42:14;94846.78;;;11.55;71.69
7182;BME280;3632;42.724;23.298;2023-04-15T06:44:41;94868.81;;;11.66;70.38
7182;BME280;3632;42.724;23.298;2023-04-15T06:47:08;94841.25;;;11.60;70.77
7182;BME280;3632;42.724;23.298;2023-04-15T06:49:37;94909.38;;;11.50;71.04
7182;BME280;3632;42.724;23.298;2023-04-15T06:52:06;94852.94;;;11.91;68.60
7182;BME280;3632;42.724;23.298;2023-04-15T06:54:33;94851.53;;;12.06;66.34
7182;BME280;3632;42.724;23.298;2023-04-15T06:56:59;94861.69;;;12.25;65.46
7182;BME280;3632;42.724;23.298;2023-04-15T06:59:26;94871.69;;;12.46;64.77
7182;BME280;3632;42.724;23.298;2023-04-15T07:01:53;94843.81;;;12.53;63.69
7182;BME280;3632;42.724;23.298;2023-04-15T07:04:19;94861.31;;;12.48;64.78
7182;BME280;3632;42.724;23.298;2023-04-15T07:06:46;94834.72;;;12.68;63.70
7182;BME280;3632;42.724;23.298;2023-04-15T07:09:14;94834.53;;;12.79;63.68
7182;BME280;3632;42.724;23.298;2023-04-15T07:11:41;94658.66;;;10.91;65.92
7182;BME280;3632;42.724;23.298;2023-04-15T07:14:08;94837.66;;;12.91;65.61
7182;BME280;3632;42.724;23.298;2023-04-15T07:16:34;94297.53;;;9.63;64.83
7182;BME280;3632;42.724;23.298;2023-04-15T07:19:01;94828.16;;;13.10;64.30
7182;BME280;3632;42.724;23.298;2023-04-15T07:21:28;94837.78;;;13.16;63.37
7182;BME280;3632;42.724;23.298;2023-04-15T07:23:55;94765.25;;;12.90;65.56
7182;BME280;3632;42.724;23.298;2023-04-15T07:26:24;94748.53;;;13.13;61.28
7182;BME280;3632;42.724;23.298;2023-04-15T07:28:51;94774.81;;;13.41;60.92
7182;BME280;3632;42.724;23.298;2023-04-15T07:31:18;94827.03;;;13.92;61.29
7182;BME280;3632;42.724;23.298;2023-04-15T07:33:44;94831.22;;;14.01;57.62
7182;BME280;3632;42.724;23.298;2023-04-15T07:36:11;94823.47;;;14.18;57.86
7182;BME280;3632;42.724;23.298;2023-04-15T07:38:38;94830.31;;;14.36;61.63
7182;BME280;3632;42.724;23.298;2023-04-15T07:41:05;94775.50;;;14.03;57.35
7182;BME280;3632;42.724;23.298;2023-04-15T07:43:33;94347.72;;;11.17;53.62
7182;BME280;3632;42.724;23.298;2023-04-15T07:46:00;94834.06;;;14.24;53.39
7182;BME280;3632;42.724;23.298;2023-04-15T07:48:27;94262.78;;;10.64;53.35
7182;BME280;3632;42.724;23.298;2023-04-15T07:50:54;94809.75;;;14.28;52.47
7182;BME280;3632;42.724;23.298;2023-04-15T07:53:21;94838.59;;;14.30;53.40
7182;BME280;3632;42.724;23.298;2023-04-15T07:55:48;94579.78;;;11.99;54.49
7182;BME280;3632;42.724;23.298;2023-04-15T07:58:15;94494.84;;;11.62;53.98
7182;BME280;3632;42.724;23.298;2023-04-15T08:00:43;94740.97;;;14.15;54.19
7182;BME280;3632;42.724;23.298;2023-04-15T08:03:10;94852.59;;;14.85;55.92
7182;BME280;3632;42.724;23.298;2023-04-15T08:05:36;94859.69;;;14.91;51.88
7182;BME280;3632;42.724;23.298;2023-04-15T08:08:04;94849.78;;;15.04;50.56
7182;BME280;3632;42.724;23.298;2023-04-15T08:10:31;94849.00;;;15.12;47.27
7182;BME280;3632;42.724;23.298;2023-04-15T08:12:58;94857.44;;;14.88;45.94
7182;BME280;3632;42.724;23.298;2023-04-15T08:15:25;94945.53;;;14.97;44.76
7182;BME280;3632;42.724;23.298;2023-04-15T08:17:54;94857.06;;;14.67;44.07
7182;BME280;3632;42.724;23.298;2023-04-15T08:20:20;94807.78;;;14.22;44.06
7182;BME280;3632;42.724;23.298;2023-04-15T08:22:48;94824.88;;;14.39;44.70
7182;BME280;3632;42.724;23.298;2023-04-15T08:25:16;94695.31;;;13.43;43.40
7182;BME280;3632;42.724;23.298;2023-04-15T08:27:43;94851.81;;;14.43;43.63
7182;BME280;3632;42.724;23.298;2023-04-15T08:30:10;94834.25;;;14.56;43.91
7182;BME280;3632;42.724;23.298;2023-04-15T08:32:37;94866.63;;;14.31;43.57
7182;BME280;3632;42.724;23.298;2023-04-15T08:35:06;94822.75;;;13.13;43.32
7182;BME280;3632;42.724;23.298;2023-04-15T08:37:33;94255.59;;;10.59;43.85
7182;BME280;3632;42.724;23.298;2023-04-15T08:40:00;94849.63;;;14.56;43.45
7182;BME280;3632;42.724;23.298;2023-04-15T08:42:30;94607.63;;;13.07;44.39
7182;BME280;3632;42.724;23.298;2023-04-15T08:44:58;94824.06;;;14.80;43.97
7182;BME280;3632;42.724;23.298;2023-04-15T08:47:28;94825.88;;;14.96;44.29
7182;BME280;3632;42.724;23.298;2023-04-15T08:49:56;94770.59;;;14.51;44.01
7182;BME280;3632;42.724;23.298;2023-04-15T08:52:25;94824.56;;;14.84;43.76
7182;BME280;3632;42.724;23.298;2023-04-15T08:54:56;94823.19;;;15.14;44.08
7182;BME280;3632;42.724;23.298;2023-04-15T08:57:25;94823.50;;;15.19;43.87
7182;BME280;3632;42.724;23.298;2023-04-15T08:59:52;94814.19;;;15.26;44.47
7182;BME280;3632;42.724;23.298;2023-04-15T09:02:20;94742.00;;;13.96;44.05
7182;BME280;3632;42.724;23.298;2023-04-15T09:04:47;94820.47;;;15.31;44.17
7182;BME280;3632;42.724;23.298;2023-04-15T09:07:14;94826.06;;;15.11;43.63
7182;BME280;3632;42.724;23.298;2023-04-15T09:09:42;94878.19;;;15.11;44.22
7182;BME280;3632;42.724;23.298;2023-04-15T09:12:10;94813.59;;;15.56;43.45
7182;BME280;3632;42.724;23.298;2023-04-15T09:14:39;94825.13;;;15.44;42.02
7182;BME280;3632;42.724;23.298;2023-04-15T09:17:09;94806.19;;;15.77;41.65
7182;BME280;3632;42.724;23.298;2023-04-15T09:19:37;94255.03;;;12.62;40.94
7182;BME280;3632;42.724;23.298;2023-04-15T09:22:04;94510.16;;;14.00;40.24
7182;BME280;3632;42.724;23.298;2023-04-15T09:24:35;94783.84;;;16.41;40.03
7182;BME280;3632;42.724;23.298;2023-04-15T09:27:05;94694.63;;;16.11;40.48
7182;BME280;3632;42.724;23.298;2023-04-15T09:29:32;94707.16;;;16.06;42.27
7182;BME280;3632;42.724;23.298;2023-04-15T09:32:09;94777.81;;;16.18;42.47
7182;BME280;3632;42.724;23.298;2023-04-15T09:34:36;94790.78;;;16.32;41.08
7182;BME280;3632;42.724;23.298;2023-04-15T09:37:03;94793.59;;;16.62;41.78
7182;BME280;3632;42.724;23.298;2023-04-15T09:39:45;94379.97;;;14.12;41.45
7182;BME280;3632;42.724;23.298;2023-04-15T09:42:16;94769.19;;;16.50;38.30
7182;BME280;3632;42.724;23.298;2023-04-15T09:44:48;94794.56;;;16.53;39.93
7182;BME280;3632;42.724;23.298;2023-04-15T09:47:28;94788.16;;;16.02;41.95
7182;BME280;3632;42.724;23.298;2023-04-15T09:49:56;94835.50;;;16.15;42.29
7182;BME280;3632;42.724;23.298;2023-04-15T09:52:23;94734.41;;;16.62;41.82
7182;BME280;3632;42.724;23.298;2023-04-15T09:54:52;94819.56;;;17.51;38.92
7182;BME280;3632;42.724;23.298;2023-04-15T09:57:22;94820.50;;;16.82;36.57
7182;BME280;3632;42.724;23.298;2023-04-15T09:59:49;94894.78;;;16.85;36.49
7182;BME280;3632;42.724;23.298;2023-04-15T10:02:17;94800.66;;;16.90;36.52
7182;BME280;3632;42.724;23.298;2023-04-15T10:04:46;94799.00;;;16.75;36.52
7182;BME280;3632;42.724;23.298;2023-04-15T10:07:14;94787.84;;;16.82;38.08
7182;BME280;3632;42.724;23.298;2023-04-15T10:09:43;94511.69;;;14.98;35.19
7182;BME280;3632;42.724;23.298;2023-04-15T10:12:11;94792.63;;;16.85;35.80
7182;BME280;3632;42.724;23.298;2023-04-15T10:14:41;94810.16;;;16.51;34.07
7182;BME280;3632;42.724;23.298;2023-04-15T10:17:10;94587.56;;;14.69;34.51
7182;BME280;3632;42.724;23.298;2023-04-15T10:19:37;94628.66;;;15.56;40.06
7182;BME280;3632;42.724;23.298;2023-04-15T10:22:05;94779.53;;;16.72;34.71
7182;BME280;3632;42.724;23.298;2023-04-15T10:24:32;94784.47;;;16.43;35.56
7182;BME280;3632;42.724;23.298;2023-04-15T10:27:00;94450.75;;;13.97;35.77
7182;BME280;3632;42.724;23.298;2023-04-15T10:29:28;94716.97;;;16.41;34.50
7182;BME280;3632;42.724;23.298;2023-04-15T10:31:58;94761.94;;;17.07;34.12
7182;BME280;3632;42.724;23.298;2023-04-15T10:34:25;94755.16;;;17.28;34.47
7182;BME280;3632;42.724;23.298;2023-04-15T10:36:54;94760.03;;;17.46;34.46
7182;BME280;3632;42.724;23.298;2023-04-15T10:39:41;94736.09;;;17.75;33.47
7182;BME280;3632;42.724;23.298;2023-04-15T10:42:10;94446.94;;;16.04;32.95
7182;BME280;3632;42.724;23.298;2023-04-15T10:44:37;94465.47;;;16.14;33.61
7182;BME280;3632;42.724;23.298;2023-04-15T10:47:09;94707.50;;;17.85;33.56
7182;BME280;3632;42.724;23.298;2023-04-15T10:49:42;94755.19;;;18.68;32.29
7182;BME280;3632;42.724;23.298;2023-04-15T10:52:10;94365.94;;;16.08;33.90
7182;BME280;3632;42.724;23.298;2023-04-15T10:54:38;94761.00;;;18.92;33.30
7182;BME280;3632;42.724;23.298;2023-04-15T10:57:13;94758.31;;;19.21;32.96
7182;BME280;3632;42.724;23.298;2023-04-15T11:00:08;94748.25;;;19.11;32.93
7182;BME280;3632;42.724;23.298;2023-04-15T11:02:42;94493.38;;;16.77;32.83
7182;BME280;3632;42.724;23.298;2023-04-15T11:05:10;94751.78;;;19.04;33.19
7182;BME280;3632;42.724;23.298;2023-04-15T11:07:39;94678.00;;;18.74;33.30
7182;BME280;3632;42.724;23.298;2023-04-15T11:13:16;94755.59;;;19.29;33.34
7182;BME280;3632;42.724;23.298;2023-04-15T11:15:45;94755.72;;;19.00;33.67
7182;BME280;3632;42.724;23.298;2023-04-15T11:18:15;94767.28;;;19.46;32.89
7182;BME280;3632;42.724;23.298;2023-04-15T11:20:43;94747.28;;;19.34;32.84
7182;BME280;3632;42.724;23.298;2023-04-15T11:23:10;94523.91;;;17.24;33.22
7182;BME280;3632;42.724;23.298;2023-04-15T11:25:37;94657.59;;;18.57;33.46
7182;BME280;3632;42.724;23.298;2023-04-15T11:28:04;94682.47;;;18.86;33.37
7182;BME280;3632;42.724;23.298;2023-04-15T11:30:33;94736.28;;;19.46;32.71
7182;BME280;3632;42.724;23.298;2023-04-15T11:33:02;94732.78;;;19.39;32.47
7182;BME280;3632;42.724;23.298;2023-04-15T11:35:32;94630.09;;;17.63;32.93
7182;BME280;3632;42.724;23.298;2023-04-15T11:38:02;94733.41;;;18.92;33.09
7182;BME280;3632;42.724;23.298;2023-04-15T11:40:29;94733.28;;;19.22;32.41
7182;BME280;3632;42.724;23.298;2023-04-15T11:43:05;94636.00;;;18.86;32.03
7182;BME280;3632;42.724;23.298;2023-04-15T11:45:33;94734.16;;;18.93;32.73
7182;BME280;3632;42.724;23.298;2023-04-15T11:48:05;94730.44;;;19.66;31.28
7182;BME280;3632;42.724;23.298;2023-04-15T11:50:34;94723.00;;;19.84;31.05
7182;BME280;3632;42.724;23.298;2023-04-15T11:53:02;94750.22;;;19.52;31.25
7182;BME280;3632;42.724;23.298;2023-04-15T11:55:30;94624.31;;;19.18;30.66
7182;BME280;3632;42.724;23.298;2023-04-15T11:58:10;94742.34;;;19.60;30.79
7182;BME280;3632;42.724;23.298;2023-04-15T12:00:38;94659.41;;;19.96;29.66
7182;BME280;3632;42.724;23.298;2023-04-15T12:03:21;94720.94;;;20.41;29.86
7182;BME280;3632;42.724;23.298;2023-04-15T12:06:19;94709.28;;;20.24;29.13
7182;BME280;3632;42.724;23.298;2023-04-15T12:09:02;94737.50;;;19.50;29.87
7182;BME280;3632;42.724;23.298;2023-04-15T12:11:35;94709.53;;;19.39;29.64
7182;BME280;3632;42.724;23.298;2023-04-15T12:14:10;94642.94;;;19.63;29.13
7182;BME280;3632;42.724;23.298;2023-04-15T12:16:40;94758.97;;;19.79;29.34
7182;BME280;3632;42.724;23.298;2023-04-15T12:19:09;94713.63;;;19.48;29.70
7182;BME280;3632;42.724;23.298;2023-04-15T12:21:39;94677.00;;;19.17;30.26
7182;BME280;3632;42.724;23.298;2023-04-15T12:24:09;94289.25;;;16.26;30.05
7182;BME280;3632;42.724;23.298;2023-04-15T12:26:37;94307.84;;;17.29;28.77
7182;BME280;3632;42.724;23.298;2023-04-15T12:29:10;94652.97;;;18.53;29.72
7182;BME280;3632;42.724;23.298;2023-04-15T12:31:46;94373.56;;;17.25;29.44
7182;BME280;3632;42.724;23.298;2023-04-15T12:34:13;94733.97;;;19.37;30.00
7182;BME280;3632;42.724;23.298;2023-04-15T12:36:42;94731.50;;;19.78;29.81
7182;BME280;3632;42.724;23.298;2023-04-15T12:39:09;94722.84;;;19.92;30.45
7182;BME280;3632;42.724;23.298;2023-04-15T12:41:36;94732.06;;;19.73;31.06
7182;BME280;3632;42.724;23.298;2023-04-15T12:44:02;94734.81;;;19.99;31.25
7182;BME280;3632;42.724;23.298;2023-04-15T12:46:29;94723.38;;;20.49;31.21
7182;BME280;3632;42.724;23.298;2023-04-15T12:48:56;94729.88;;;20.39;30.91
7182;BME280;3632;42.724;23.298;2023-04-15T12:51:24;94723.38;;;20.49;29.96
7182;BME280;3632;42.724;23.298;2023-04-15T12:53:52;94724.81;;;20.65;29.47
7182;BME280;3632;42.724;23.298;2023-04-15T12:56:18;94687.34;;;20.14;29.62
7182;BME280;3632;42.724;23.298;2023-04-15T12:58:45;94511.81;;;19.09;29.15
7182;BME280;3632;42.724;23.298;2023-04-15T13:01:14;94387.84;;;17.63;29.61
7182;BME280;3632;42.724;23.298;2023-04-15T13:03:40;94355.38;;;17.90;29.60
7182;BME280;3632;42.724;23.298;2023-04-15T13:06:07;94727.00;;;20.62;28.88
7182;BME280;3632;42.724;23.298;2023-04-15T13:08:34;94711.72;;;21.00;28.23
7182;BME280;3632;42.724;23.298;2023-04-15T13:11:02;94668.25;;;20.69;28.09
7182;BME280;3632;42.724;23.298;2023-04-15T13:13:29;94717.38;;;21.16;28.42
7182;BME280;3632;42.724;23.298;2023-04-15T13:15:56;94626.97;;;20.54;28.28
7182;BME280;3632;42.724;23.298;2023-04-15T13:18:23;94735.28;;;20.44;29.44
7182;BME280;3632;42.724;23.298;2023-04-15T13:20:50;94659.66;;;20.62;28.50
7182;BME280;3632;42.724;23.298;2023-04-15T13:23:17;94723.75;;;21.40;28.12